Time;durP1;ratioP1;P1;durP2;ratioP2;P2;SDS_P1;SDS_P2;PMS_P1;PMS_P2;Temp;Humidity;BMP_temperature;BMP_pressure;BME280_temperature;BME280_humidity;BME280_pressure;Samples;Min_cycle;Max_cycle;Signal;HPM_P1;HPM_P2
2022/02/27 00:01:19;;;;;;;;;;;;;;;;;;5046172;28;19940;-57
2022/02/27 00:03:44;;;;;;;;;;;;;;;;;;5030583;28;20385;-57
2022/02/27 00:06:10;;;;;;;;;;;;;;;;;;5048299;28;20033;-57
2022/02/27 00:08:35;;;;;;;;;;;;;;;;;;5044885;28;21062;-57
2022/02/27 00:11:01;;;;;;;;;;;;;;;;;;5046916;28;19969;-56
2022/02/27 00:13:26;;;;;;;;;;;;;;;;;;5046085;28;20015;-54
2022/02/27 00:15:51;;;;;;;;;;;;;;;;;;5047290;28;19920;-56
2022/02/27 00:18:17;;;;;;;;;;;;;;;;;;5047753;28;20062;-57
2022/02/27 00:20:47;;;;;;;;;;;;;;;;;;5045888;28;20403;-57
2022/02/27 00:23:12;;;;;;;;;;;;;;;;;;5045394;28;19921;-55
2022/02/27 00:25:38;;;;;;;;;;;;;;;;;;5024860;28;19939;-57
2022/02/27 00:28:03;;;;;;;;;;;;;;;;;;5024566;28;19975;-56
2022/02/27 00:30:28;;;;;;;;;;;;;;;;;;5023765;28;19921;-57
2022/02/27 00:32:54;;;;;;;;;;;;;;;;;;5027596;28;19925;-55
2022/02/27 00:35:19;;;;;;;;;;;;;;;;;;5027302;28;20427;-56
2022/02/27 00:37:45;;;;;;;;;;;;;;;;;;5026272;28;19931;-56
2022/02/27 00:40:10;;;;;;;;;;;;;;;;;;5027224;28;19929;-56
2022/02/27 00:42:36;;;;;;;;;;;;;;;;;;5025701;28;19921;-56
2022/02/27 00:45:04;;;;;;;;;;;;;;;;;;5026237;28;20000;-56
2022/02/27 00:47:30;;;;;;;;;;;;;;;;;;5047861;28;19970;-56
2022/02/27 00:49:55;;;;;;;;;;;;;;;;;;5025824;28;20350;-54
2022/02/27 00:52:22;;;;;;;;;;;;;;;;;;5024840;28;19928;-56
2022/02/27 00:54:48;;;;;;;;;;;;;;;;;;5026378;28;19959;-56
2022/02/27 00:57:13;;;;;;;;;;;;;;;;;;5028022;28;19972;-56
2022/02/27 00:59:43;;;;;;;;;;;;;;;;;;5024544;28;19986;-56
2022/02/27 01:02:09;;;;;;;;;;;;;;;;;;5026272;28;21093;-57
2022/02/27 01:04:34;;;;;;;;;;;;;;;;;;5026695;28;19956;-57
2022/02/27 01:07:00;;;;;;;;;;;;;;;;;;5025612;28;19921;-57
2022/02/27 01:09:25;;;;;;;;;;;;;;;;;;5025882;28;20844;-55
2022/02/27 01:11:51;;;;;;;;;;;;;;;;;;5025895;28;20332;-57
2022/02/27 01:14:16;;;;;;;;;;;;;;;;;;5022977;28;19925;-57
2022/02/27 01:16:42;;;;;;;;;;;;;;;;;;5025431;28;19916;-56
2022/02/27 01:19:08;;;;;;;;;;;;;;;;;;5024530;28;19925;-55
2022/02/27 01:21:33;;;;;;;;;;;;;;;;;;5024776;28;20306;-56
2022/02/27 01:23:59;;;;;;;;;;;;;;;;;;5025206;28;20350;-55
2022/02/27 01:26:24;;;;;;;;;;;;;;;;;;5025117;28;20011;-57
2022/02/27 01:28:50;;;;;;;;;;;;;;;;;;5023717;28;19940;-55
2022/02/27 01:31:15;;;;;;;;;;;;;;;;;;5027433;28;19936;-58
2022/02/27 01:33:41;;;;;;;;;;;;;;;;;;5023413;28;19921;-60
2022/02/27 01:36:07;;;;;;;;;;;;;;;;;;5025501;28;20452;-57
2022/02/27 01:38:32;;;;;;;;;;;;;;;;;;5021867;28;19921;-55
2022/02/27 01:40:58;;;;;;;;;;;;;;;;;;5025995;28;19962;-56
2022/02/27 01:43:23;;;;;;;;;;;;;;;;;;5015425;28;20405;-57
2022/02/27 01:45:49;;;;;;;;;;;;;;;;;;5026544;28;20290;-57
2022/02/27 01:48:14;;;;;;;;;;;;;;;;;;5025774;28;19921;-58
2022/02/27 01:50:39;;;;;;;;;;;;;;;;;;5021840;28;19932;-56
2022/02/27 01:53:05;;;;;;;;;;;;;;;;;;5024558;28;20003;-57
2022/02/27 01:55:30;;;;;;;;;;;;;;;;;;5026095;28;20941;-58
2022/02/27 01:57:59;;;;;;;;;;;;;;;;;;5023190;28;19921;-59
2022/02/27 02:00:24;;;;;;;;;;;;;;;;;;5025089;28;19944;-57
2022/02/27 02:02:50;;;;;;;;;;;;;;;;;;5024113;28;19962;-57
2022/02/27 02:05:15;;;;;;;;;;;;;;;;;;5024489;28;20051;-57
2022/02/27 02:07:41;;;;;;;;;;;;;;;;;;5023788;28;19939;-56
2022/02/27 02:10:06;;;;;;;;;;;;;;;;;;5024012;28;19935;-57
2022/02/27 02:12:32;;;;;;;;;;;;;;;;;;5024317;28;19925;-56
2022/02/27 02:14:57;;;;;;;;;;;;;;;;;;5024704;28;20358;-58
2022/02/27 02:17:23;;;;;;;;;;;;;;;;;;5024160;28;19929;-57
2022/02/27 02:19:48;;;;;;;;;;;;;;;;;;5023530;28;19929;-56
2022/02/27 02:22:14;;;;;;;;;;;;;;;;;;5025266;28;19931;-56
2022/02/27 02:24:39;;;;;;;;;;;;;;;;;;5024897;28;20827;-57
2022/02/27 02:27:05;;;;;;;;;;;;;;;;;;5025887;28;19949;-58
2022/02/27 02:29:30;;;;;;;;;;;;;;;;;;5024792;28;19920;-56
2022/02/27 02:31:56;;;;;;;;;;;;;;;;;;5028683;28;19925;-57
2022/02/27 02:34:21;;;;;;;;;;;;;;;;;;5025705;28;19921;-58
2022/02/27 02:36:47;;;;;;;;;;;;;;;;;;5027787;28;19920;-57
2022/02/27 02:39:12;;;;;;;;;;;;;;;;;;5028422;28;19925;-57
2022/02/27 02:41:37;;;;;;;;;;;;;;;;;;5028856;28;19979;-57
2022/02/27 02:44:03;;;;;;;;;;;;;;;;;;5030281;28;20743;-58
2022/02/27 02:46:29;;;;;;;;;;;;;;;;;;5027698;28;19933;-55
2022/02/27 02:48:55;;;;;;;;;;;;;;;;;;5027947;28;20281;-58
2022/02/27 02:51:20;;;;;;;;;;;;;;;;;;5029636;28;19928;-57
2022/02/27 02:53:45;;;;;;;;;;;;;;;;;;5029543;28;19925;-57
2022/02/27 02:56:11;;;;;;;;;;;;;;;;;;5029596;28;19921;-57
2022/02/27 02:58:39;;;;;;;;;;;;;;;;;;5027271;28;20042;-59
2022/02/27 03:01:04;;;;;;;;;;;;;;;;;;5028218;28;19933;-56
2022/02/27 03:03:30;;;;;;;;;;;;;;;;;;5026886;28;19932;-56
2022/02/27 03:05:55;;;;;;;;;;;;;;;;;;5027349;28;19932;-56
2022/02/27 03:08:21;;;;;;;;;;;;;;;;;;5027260;28;19946;-55
2022/02/27 03:10:46;;;;;;;;;;;;;;;;;;5027122;28;19943;-57
2022/02/27 03:13:12;;;;;;;;;;;;;;;;;;5028325;28;19924;-56
2022/02/27 03:15:37;;;;;;;;;;;;;;;;;;5028458;28;19937;-56
2022/02/27 03:18:04;;;;;;;;;;;;;;;;;;5027654;28;19949;-57
2022/02/27 03:20:30;;;;;;;;;;;;;;;;;;5026773;28;19928;-57
2022/02/27 03:22:55;;;;;;;;;;;;;;;;;;5027950;28;19975;-56
2022/02/27 03:25:22;;;;;;;;;;;;;;;;;;5028177;28;19933;-56
2022/02/27 03:27:47;;;;;;;;;;;;;;;;;;5029688;28;20493;-56
2022/02/27 03:30:13;;;;;;;;;;;;;;;;;;5043733;28;20016;-57
2022/02/27 03:32:38;;;;;;;;;;;;;;;;;;5026683;28;19924;-57
2022/02/27 03:35:04;;;;;;;;;;;;;;;;;;5025172;28;19921;-57
2022/02/27 03:37:30;;;;;;;;;;;;;;;;;;5027963;28;19925;-57
2022/02/27 03:39:55;;;;;;;;;;;;;;;;;;5025506;28;19929;-58
2022/02/27 03:42:20;;;;;;;;;;;;;;;;;;5017356;28;21679;-57
2022/02/27 03:44:46;;;;;;;;;;;;;;;;;;5026494;28;20510;-57
2022/02/27 03:47:11;;;;;;;;;;;;;;;;;;5027896;28;19928;-56
2022/02/27 03:49:37;;;;;;;;;;;;;;;;;;5026374;28;19925;-61
2022/02/27 03:52:03;;;;;;;;;;;;;;;;;;5028814;28;19917;-59
2022/02/27 03:54:29;;;;;;;;;;;;;;;;;;5027686;28;20003;-56
2022/02/27 03:56:54;;;;;;;;;;;;;;;;;;5027760;28;19925;-57
2022/02/27 03:59:20;;;;;;;;;;;;;;;;;;5033123;28;19921;-60
2022/02/27 04:01:45;;;;;;;;;;;;;;;;;;5043053;28;20715;-57
2022/02/27 04:04:10;;;;;;;;;;;;;;;;;;5028464;28;19927;-57
2022/02/27 04:06:36;;;;;;;;;;;;;;;;;;5028975;28;19921;-57
2022/02/27 04:09:01;;;;;;;;;;;;;;;;;;5028376;28;20410;-57
2022/02/27 04:11:27;;;;;;;;;;;;;;;;;;5026390;28;19936;-54
2022/02/27 04:13:52;;;;;;;;;;;;;;;;;;5028418;28;19925;-58
2022/02/27 04:16:18;;;;;;;;;;;;;;;;;;5027947;28;20344;-57
2022/02/27 04:18:43;;;;;;;;;;;;;;;;;;5024119;28;20321;-59
2022/02/27 04:21:09;;;;;;;;;;;;;;;;;;5052133;28;20465;-57
2022/02/27 04:23:34;;;;;;;;;;;;;;;;;;5027143;28;19922;-57
2022/02/27 04:26:00;;;;;;;;;;;;;;;;;;5025939;28;19929;-58
2022/02/27 04:28:26;;;;;;;;;;;;;;;;;;5025973;28;20054;-58
2022/02/27 04:30:51;;;;;;;;;;;;;;;;;;5023972;28;20297;-55
2022/02/27 04:33:18;;;;;;;;;;;;;;;;;;5027019;28;20023;-57
2022/02/27 04:35:43;;;;;;;;;;;;;;;;;;5026284;28;19932;-56
2022/02/27 04:38:09;;;;;;;;;;;;;;;;;;5026712;28;19925;-57
2022/02/27 04:40:34;;;;;;;;;;;;;;;;;;5023736;28;19975;-56
2022/02/27 04:43:00;;;;;;;;;;;;;;;;;;5025587;28;19928;-55
2022/02/27 04:45:28;;;;;;;;;;;;;;;;;;5025864;28;19921;-53
2022/02/27 04:47:54;;;;;;;;;;;;;;;;;;5028205;28;19968;-57
2022/02/27 04:50:19;;;;;;;;;;;;;;;;;;5024389;28;20347;-54
2022/02/27 04:52:45;;;;;;;;;;;;;;;;;;5041986;28;19978;-57
2022/02/27 04:55:10;;;;;;;;;;;;;;;;;;5025162;28;19943;-57
2022/02/27 04:57:36;;;;;;;;;;;;;;;;;;5027771;28;20425;-56
2022/02/27 05:10:53;;;;;;;2.72;0.60;;;;;;;;;;5028223;28;20452;-57
2022/02/27 05:13:19;;;;;;;2.40;0.60;;;;;;;;;;5013426;28;20038;-58
2022/02/27 05:15:45;;;;;;;3.15;0.70;;;;;;;;;;5010482;28;20037;-58
2022/02/27 05:18:11;;;;;;;2.40;0.60;;;;;;;;;;5011923;28;20053;-58
2022/02/27 05:20:37;;;;;;;1.88;0.70;;;;;;;;;;5010260;28;20479;-60
2022/02/27 05:23:03;;;;;;;2.30;0.70;;;;;;;;;;5008582;28;20550;-57
2022/02/27 05:25:29;;;;;;;2.90;0.70;;;;;;;;;;5008544;28;20044;-59
2022/02/27 05:27:54;;;;;;;1.85;0.60;;;;;;;;;;5011609;28;20033;-57
2022/02/27 05:30:21;;;;;;;1.50;0.50;;;;;;;;;;5009780;28;20072;-61
2022/02/27 05:32:48;;;;;;;2.20;0.90;;;;;;;;;;5011377;28;20041;-59
2022/02/27 05:35:14;;;;;;;1.38;0.52;;;;;;;;;;5010674;28;20637;-57
2022/02/27 05:37:40;;;;;;;2.05;0.55;;;;;;;;;;5010905;28;20061;-59
2022/02/27 05:40:07;;;;;;;2.65;0.70;;;;;;;;;;5011839;28;20177;-59
2022/02/27 05:42:34;;;;;;;1.25;0.60;;;;;;;;;;5010367;28;20037;-56
2022/02/27 05:45:00;;;;;;;1.73;0.57;;;;;;;;;;5011092;28;20164;-59
2022/02/27 05:47:26;;;;;;;2.22;0.60;;;;;;;;;;5012813;28;20040;-56
2022/02/27 05:49:52;;;;;;;1.70;0.50;;;;;;;;;;5030405;28;20037;-57
2022/02/27 05:52:18;;;;;;;2.08;0.63;;;;;;;;;;5013801;28;20049;-61
2022/02/27 05:54:45;;;;;;;1.75;0.52;;;;;;;;;;5012296;28;20038;-58
2022/02/27 05:57:11;;;;;;;2.15;0.60;;;;;;;;;;5013976;28;20088;-59
2022/02/27 05:59:37;;;;;;;1.48;0.60;;;;;;;;;;5013575;28;20117;-61
2022/02/27 06:02:03;;;;;;;1.60;0.60;;;;;;;;;;5015360;28;20049;-56
2022/02/27 06:04:29;;;;;;;1.80;0.52;;;;;;;;;;5014468;28;20111;-56
2022/02/27 06:06:55;;;;;;;2.95;0.70;;;;;;;;;;5014130;28;20037;-58
2022/02/27 06:09:21;;;;;;;1.42;0.50;;;;;;;;;;5011454;28;20086;-57
2022/02/27 06:11:47;;;;;;;3.83;0.75;;;;;;;;;;5006199;28;20042;-60
2022/02/27 06:14:13;;;;;;;1.77;0.60;;;;;;;;;;5015227;28;20104;-58
2022/02/27 06:16:39;;;;;;;1.92;0.70;;;;;;;;;;5015650;28;20034;-61
2022/02/27 06:19:04;;;;;;;1.55;0.65;;;;;;;;;;5015742;28;20041;-59
2022/02/27 06:21:31;;;;;;;1.58;0.60;;;;;;;;;;5003214;28;20064;-54
2022/02/27 06:23:56;;;;;;;2.30;0.70;;;;;;;;;;5001291;28;20038;-56
2022/02/27 06:26:24;;;;;;;1.55;0.60;;;;;;;;;;5010937;28;20037;-58
2022/02/27 06:28:50;;;;;;;2.45;0.70;;;;;;;;;;5033375;28;20080;-57
2022/02/27 06:31:16;;;;;;;2.38;0.80;;;;;;;;;;5006095;28;20034;-58
2022/02/27 06:33:42;;;;;;;3.83;0.70;;;;;;;;;;5007739;28;20046;-58
2022/02/27 06:36:08;;;;;;;2.20;0.75;;;;;;;;;;5006127;28;20489;-58
2022/02/27 06:38:34;;;;;;;2.75;0.90;;;;;;;;;;5019184;28;20061;-58
2022/02/27 06:41:01;;;;;;;2.38;0.70;;;;;;;;;;5003583;28;20085;-57
2022/02/27 06:43:27;;;;;;;2.20;0.57;;;;;;;;;;5002340;28;20068;-58
2022/02/27 06:45:53;;;;;;;2.30;0.70;;;;;;;;;;5003129;28;20046;-59
2022/02/27 06:48:19;;;;;;;1.98;0.75;;;;;;;;;;5001459;28;20037;-56
2022/02/27 06:50:45;;;;;;;1.70;0.68;;;;;;;;;;5000577;28;20586;-57
2022/02/27 06:53:11;;;;;;;1.83;0.70;;;;;;;;;;5001854;28;20092;-59
2022/02/27 06:55:37;;;;;;;2.10;0.77;;;;;;;;;;5002565;28;22525;-56
2022/02/27 06:58:03;;;;;;;1.88;0.60;;;;;;;;;;4999896;28;20053;-56
2022/02/27 07:00:29;;;;;;;6.07;0.80;;;;;;;;;;4997959;28;20057;-57
2022/02/27 07:02:55;;;;;;;2.78;0.70;;;;;;;;;;4998875;28;20038;-57
2022/02/27 07:05:20;;;;;;;2.05;0.70;;;;;;;;;;4999267;28;20982;-59
2022/02/27 07:07:46;;;;;;;2.03;0.57;;;;;;;;;;4998119;28;20407;-60
2022/02/27 07:10:12;;;;;;;2.05;0.80;;;;;;;;;;4997629;28;20050;-56
2022/02/27 07:12:38;;;;;;;2.15;0.80;;;;;;;;;;4996561;28;20503;-57
2022/02/27 07:15:05;;;;;;;1.80;0.60;;;;;;;;;;4996247;28;20046;-58
2022/02/27 07:17:31;;;;;;;4.63;0.70;;;;;;;;;;5007428;28;20554;-57
2022/02/27 07:19:57;;;;;;;1.92;0.50;;;;;;;;;;5009988;28;20060;-58
2022/02/27 07:22:23;;;;;;;2.40;0.60;;;;;;;;;;4995890;28;20061;-57
2022/02/27 07:24:49;;;;;;;1.98;0.63;;;;;;;;;;5001468;28;20041;-57
2022/02/27 07:27:15;;;;;;;2.30;0.60;;;;;;;;;;5011358;28;20105;-56
2022/02/27 07:29:41;;;;;;;2.10;0.70;;;;;;;;;;5001394;28;20191;-59
2022/02/27 07:32:08;;;;;;;1.83;0.50;;;;;;;;;;5000297;28;20133;-57
2022/02/27 07:34:34;;;;;;;1.90;0.70;;;;;;;;;;4997897;28;20061;-57
2022/02/27 07:37:00;;;;;;;1.85;0.60;;;;;;;;;;4995801;28;20085;-57
2022/02/27 07:39:26;;;;;;;1.80;0.60;;;;;;;;;;4996779;28;20593;-56
2022/02/27 07:41:52;;;;;;;2.22;0.60;;;;;;;;;;4999143;28;20128;-58
2022/02/27 07:44:18;;;;;;;2.15;0.63;;;;;;;;;;4997861;28;20042;-57
2022/02/27 07:46:47;;;;;;;3.90;0.70;;;;;;;;;;4996917;28;20502;-57
2022/02/27 07:49:13;;;;;;;1.75;0.70;;;;;;;;;;5000940;28;20042;-57
2022/02/27 07:51:39;;;;;;;2.67;0.70;;;;;;;;;;5014047;28;20081;-57
2022/02/27 07:54:05;;;;;;;1.90;0.60;;;;;;;;;;4998583;28;20455;-57
2022/02/27 07:56:31;;;;;;;2.50;0.70;;;;;;;;;;4997822;28;20129;-57
2022/02/27 07:58:58;;;;;;;1.63;0.60;;;;;;;;;;4999027;28;20152;-57
2022/02/27 08:01:24;;;;;;;1.75;0.63;;;;;;;;;;4998348;28;20034;-56
2022/02/27 08:03:50;;;;;;;1.85;0.68;;;;;;;;;;4996611;28;20037;-57
2022/02/27 08:06:16;;;;;;;2.13;0.50;;;;;;;;;;4997782;28;20041;-58
2022/02/27 08:08:42;;;;;;;2.17;0.70;;;;;;;;;;4995863;28;20030;-56
2022/02/27 08:11:08;;;;;;;3.20;0.88;;;;;;;;;;4995284;28;20061;-57
2022/02/27 08:13:37;;;;;;;4.10;0.60;;;;;;;;;;4995318;28;20407;-59
2022/02/27 08:16:03;;;;;;;2.05;0.65;;;;;;;;;;4995008;28;20045;-57
2022/02/27 08:18:29;;;;;;;2.72;0.80;;;;;;;;;;4995051;28;20515;-57
2022/02/27 08:20:55;;;;;;;1.98;0.70;;;;;;;;;;5027104;28;20034;-58
2022/02/27 08:23:22;;;;;;;1.65;0.55;;;;;;;;;;4996535;28;20048;-57
2022/02/27 08:25:49;;;;;;;3.15;0.77;;;;;;;;;;4995051;28;20066;-57
2022/02/27 08:28:15;;;;;;;2.15;0.73;;;;;;;;;;4997263;28;20080;-57
2022/02/27 08:30:41;;;;;;;2.08;0.60;;;;;;;;;;4995556;28;20045;-57
2022/02/27 08:33:07;;;;;;;1.63;0.50;;;;;;;;;;4996889;28;20052;-57
2022/02/27 08:35:33;;;;;;;1.27;0.50;;;;;;;;;;4996941;28;20041;-57
2022/02/27 08:37:59;;;;;;;1.65;0.52;;;;;;;;;;4993671;28;20038;-58
2022/02/27 08:40:25;;;;;;;1.85;0.60;;;;;;;;;;4995303;28;20065;-57
2022/02/27 08:42:54;;;;;;;1.70;0.60;;;;;;;;;;4997811;28;20440;-57
2022/02/27 08:45:21;;;;;;;2.25;0.70;;;;;;;;;;4992986;28;20204;-57
2022/02/27 08:47:46;;;;;;;1.88;0.63;;;;;;;;;;4998797;28;20117;-57
2022/02/27 08:50:12;;;;;;;2.30;0.70;;;;;;;;;;4995070;28;20730;-56
2022/02/27 08:52:38;;;;;;;1.60;0.60;;;;;;;;;;4996082;28;20065;-57
2022/02/27 08:55:05;;;;;;;1.70;0.60;;;;;;;;;;4994803;28;20101;-57
2022/02/27 08:57:31;;;;;;;2.13;0.60;;;;;;;;;;4994426;28;20042;-58
2022/02/27 08:59:57;;;;;;;1.67;0.60;;;;;;;;;;4995650;28;20085;-58
2022/02/27 09:02:23;;;;;;;2.25;0.70;;;;;;;;;;4995236;28;20038;-57
2022/02/27 09:04:50;;;;;;;1.80;0.60;;;;;;;;;;4997608;28;20818;-59
2022/02/27 09:07:16;;;;;;;2.10;0.60;;;;;;;;;;4997694;28;20057;-58
2022/02/27 09:09:43;;;;;;;1.65;0.60;;;;;;;;;;4993647;28;20038;-58
2022/02/27 09:12:09;;;;;;;2.95;0.60;;;;;;;;;;5000160;28;20569;-58
2022/02/27 09:14:35;;;;;;;1.63;0.60;;;;;;;;;;4998937;28;20049;-58
2022/02/27 09:17:01;;;;;;;1.63;0.60;;;;;;;;;;4998505;28;20030;-59
2022/02/27 09:19:27;;;;;;;4.22;0.75;;;;;;;;;;4987148;28;20061;-58
2022/02/27 09:21:53;;;;;;;2.00;0.60;;;;;;;;;;4995630;28;20042;-58
2022/02/27 09:24:19;;;;;;;1.98;0.70;;;;;;;;;;4993217;28;20100;-58
2022/02/27 09:26:45;;;;;;;2.03;0.70;;;;;;;;;;4995830;28;20046;-56
2022/02/27 09:29:12;;;;;;;2.00;0.60;;;;;;;;;;4993813;28;20042;-57
2022/02/27 09:31:37;;;;;;;1.25;0.50;;;;;;;;;;4994550;28;20045;-57
2022/02/27 09:34:04;;;;;;;3.00;0.70;;;;;;;;;;4994597;28;20092;-57
2022/02/27 09:36:30;;;;;;;1.83;0.63;;;;;;;;;;4994935;28;20069;-58
2022/02/27 09:38:56;;;;;;;2.88;0.80;;;;;;;;;;4992605;28;20142;-57
2022/02/27 09:41:22;;;;;;;1.90;0.63;;;;;;;;;;4994722;28;20041;-57
2022/02/27 09:43:53;;;;;;;2.10;0.70;;;;;;;;;;4995772;28;20768;-58
2022/02/27 09:46:20;;;;;;;2.13;0.70;;;;;;;;;;4998654;28;20070;-57
2022/02/27 09:48:46;;;;;;;2.22;0.60;;;;;;;;;;5000127;28;20095;-57
2022/02/27 09:51:13;;;;;;;2.20;0.65;;;;;;;;;;5006640;28;20100;-57
2022/02/27 09:53:39;;;;;;;1.80;0.60;;;;;;;;;;5001576;28;20043;-55
2022/02/27 09:56:05;;;;;;;2.00;0.68;;;;;;;;;;5000465;28;20038;-58
2022/02/27 09:58:31;;;;;;;1.23;0.50;;;;;;;;;;4999271;28;20391;-58
2022/02/27 10:00:57;;;;;;;1.27;0.50;;;;;;;;;;5000199;28;20484;-57
2022/02/27 10:03:27;;;;;;;1.95;0.70;;;;;;;;;;4998387;28;20153;-58
2022/02/27 10:05:59;;;;;;;4.72;0.60;;;;;;;;;;4999319;28;20034;-57
2022/02/27 10:08:25;;;;;;;2.50;0.80;;;;;;;;;;4997766;28;20029;-57
2022/02/27 10:10:57;;;;;;;2.33;0.73;;;;;;;;;;4997605;28;20046;-57
2022/02/27 10:13:33;;;;;;;3.25;0.68;;;;;;;;;;4997401;28;20462;-56
2022/02/27 10:16:07;;;;;;;2.15;0.70;;;;;;;;;;4995734;28;20137;-56
2022/02/27 10:18:37;;;;;;;1.83;0.60;;;;;;;;;;4996998;28;20128;-57
2022/02/27 10:21:03;;;;;;;1.95;0.60;;;;;;;;;;4975697;28;20050;-57
2022/02/27 10:23:29;;;;;;;2.17;0.70;;;;;;;;;;4976265;28;20085;-57
2022/02/27 10:25:55;;;;;;;2.17;0.70;;;;;;;;;;4977125;28;20065;-56
2022/02/27 10:28:21;;;;;;;2.13;0.68;;;;;;;;;;4976660;28;20532;-58
2022/02/27 10:30:48;;;;;;;3.85;0.70;;;;;;;;;;4975984;28;20038;-57
2022/02/27 10:33:14;;;;;;;2.00;0.68;;;;;;;;;;4976762;28;20039;-58
2022/02/27 10:35:44;;;;;;;2.20;0.70;;;;;;;;;;4974818;28;20045;-58
2022/02/27 10:38:11;;;;;;;4.07;0.60;;;;;;;;;;4977475;28;20062;-58
2022/02/27 10:40:39;;;;;;;2.35;0.70;;;;;;;;;;4976822;28;20082;-58
2022/02/27 10:43:09;;;;;;;1.55;0.50;;;;;;;;;;4977924;28;20046;-59
2022/02/27 10:45:35;;;;;;;2.20;0.68;;;;;;;;;;4977643;28;20041;-57
2022/02/27 10:48:06;;;;;;;3.00;0.77;;;;;;;;;;4979138;28;20030;-59
2022/02/27 10:50:35;;;;;;;1.92;0.65;;;;;;;;;;4977217;28;20047;-58
2022/02/27 10:53:01;;;;;;;2.20;0.65;;;;;;;;;;4978639;28;20065;-58
2022/02/27 10:55:27;;;;;;;2.10;0.60;;;;;;;;;;4977940;28;20054;-58
2022/02/27 10:57:54;;;;;;;2.83;0.90;;;;;;;;;;4983842;28;20042;-58
2022/02/27 11:00:20;;;;;;;3.03;0.80;;;;;;;;;;4999137;28;20057;-56
2022/02/27 11:02:47;;;;;;;2.35;0.60;;;;;;;;;;4998656;28;20407;-57
2022/02/27 11:05:14;;;;;;;2.25;0.82;;;;;;;;;;5001431;28;20037;-56
2022/02/27 11:07:41;;;;;;;2.55;0.60;;;;;;;;;;5002986;28;20038;-59
2022/02/27 11:10:08;;;;;;;2.30;0.70;;;;;;;;;;5001647;28;20054;-59
2022/02/27 11:12:36;;;;;;;2.75;0.80;;;;;;;;;;5001317;28;20714;-58
2022/02/27 11:15:02;;;;;;;3.47;0.80;;;;;;;;;;5002991;28;20105;-56
2022/02/27 11:17:29;;;;;;;1.45;0.52;;;;;;;;;;5001204;28;20065;-57
2022/02/27 11:19:55;;;;;;;1.90;0.60;;;;;;;;;;5001218;28;21532;-57
2022/02/27 11:22:21;;;;;;;2.15;0.57;;;;;;;;;;5001814;28;20042;-58
2022/02/27 11:24:47;;;;;;;2.13;0.63;;;;;;;;;;5010106;28;20046;-58
2022/02/27 11:27:14;;;;;;;1.75;0.60;;;;;;;;;;4998621;28;20571;-57
2022/02/27 11:29:46;;;;;;;1.98;0.60;;;;;;;;;;4998446;28;20066;-57
2022/02/27 11:32:12;;;;;;;1.75;0.60;;;;;;;;;;4998283;28;20045;-57
2022/02/27 11:34:41;;;;;;;1.10;0.50;;;;;;;;;;4997888;28;20076;-57
2022/02/27 11:37:08;;;;;;;1.80;0.60;;;;;;;;;;5000488;28;20048;-56
2022/02/27 11:42:36;;;;;;;2.17;0.70;;;;;;;;;;5000910;28;20066;-58
2022/02/27 11:45:02;;;;;;;1.98;0.60;;;;;;;;;;5035646;28;20038;-57
2022/02/27 11:47:46;;;;;;;2.08;0.60;;;;;;;;;;5005435;28;20040;-57
2022/02/27 11:50:35;;;;;;;5.30;0.60;;;;;;;;;;5019546;28;20041;-57
2022/02/27 11:53:02;;;;;;;1.75;0.50;;;;;;;;;;5008868;28;20034;-57
2022/02/27 11:55:44;;;;;;;1.73;0.57;;;;;;;;;;5035822;28;20042;-56
2022/02/27 11:58:28;;;;;;;1.83;0.60;;;;;;;;;;4997269;28;20473;-56
2022/02/27 12:01:01;;;;;;;2.22;0.60;;;;;;;;;;4997288;28;20091;-57
2022/02/27 12:03:29;;;;;;;1.90;0.60;;;;;;;;;;4994848;28;20068;-57
2022/02/27 12:05:56;;;;;;;1.80;0.60;;;;;;;;;;4995317;28;20132;-57
2022/02/27 12:08:42;;;;;;;1.75;0.50;;;;;;;;;;4988279;28;20038;-57
2022/02/27 12:11:27;;;;;;;4.32;0.70;;;;;;;;;;4993788;28;20147;-56
2022/02/27 12:13:53;;;;;;;1.70;0.50;;;;;;;;;;4994979;28;20470;-56
2022/02/27 12:16:33;;;;;;;1.70;0.52;;;;;;;;;;4994476;28;20116;-57
2022/02/27 12:18:59;;;;;;;3.05;0.65;;;;;;;;;;4992822;28;20054;-57
2022/02/27 12:21:39;;;;;;;1.67;0.60;;;;;;;;;;4994087;28;20069;-56
2022/02/27 12:24:11;;;;;;;1.73;0.57;;;;;;;;;;5028499;28;20125;-57
2022/02/27 12:26:37;;;;;;;1.90;0.57;;;;;;;;;;4995838;28;20080;-56
2022/02/27 12:29:04;;;;;;;1.42;0.50;;;;;;;;;;4994946;28;20073;-56
2022/02/27 12:31:34;;;;;;;1.90;0.60;;;;;;;;;;4994878;28;20506;-55
2022/02/27 12:34:09;;;;;;;1.60;0.50;;;;;;;;;;4995672;28;20728;-57
2022/02/27 12:36:38;;;;;;;1.95;0.68;;;;;;;;;;4999170;28;20033;-57
2022/02/27 12:39:06;;;;;;;3.40;0.80;;;;;;;;;;4996406;28;20049;-58
2022/02/27 12:41:33;;;;;;;3.47;0.70;;;;;;;;;;4990097;28;21016;-57
2022/02/27 12:44:00;;;;;;;1.33;0.50;;;;;;;;;;4996032;28;20033;-58
2022/02/27 12:46:26;;;;;;;1.70;0.60;;;;;;;;;;4994911;28;20065;-57
2022/02/27 12:51:37;;;;;;;1.75;0.55;;;;;;;;;;4997204;28;21860;-57
2022/02/27 12:54:09;;;;;;;2.55;0.70;;;;;;;;;;4995155;28;20065;-58
2022/02/27 12:56:35;;;;;;;2.30;0.68;;;;;;;;;;4997027;28;20180;-57
2022/02/27 12:59:01;;;;;;;3.97;0.70;;;;;;;;;;4997312;28;20940;-57
2022/02/27 13:01:31;;;;;;;2.10;0.63;;;;;;;;;;4995751;28;20034;-57
2022/02/27 13:04:05;;;;;;;1.95;0.50;;;;;;;;;;5013550;28;20042;-59
2022/02/27 13:06:34;;;;;;;1.90;0.50;;;;;;;;;;4996156;28;20492;-57
2022/02/27 13:09:01;;;;;;;2.05;0.60;;;;;;;;;;4993965;28;20051;-57
2022/02/27 13:11:39;;;;;;;2.15;0.70;;;;;;;;;;4992631;28;20046;-57
2022/02/27 13:14:06;;;;;;;1.98;0.45;;;;;;;;;;4993945;28;20037;-57
2022/02/27 13:16:32;;;;;;;1.40;0.52;;;;;;;;;;4994949;28;20519;-58
2022/02/27 13:18:58;;;;;;;5.05;0.70;;;;;;;;;;4995479;28;20047;-57
2022/02/27 13:21:24;;;;;;;2.33;0.63;;;;;;;;;;4995712;28;20038;-57
2022/02/27 13:24:00;;;;;;;2.03;0.60;;;;;;;;;;5009068;28;21738;-56
2022/02/27 13:26:28;;;;;;;1.98;0.60;;;;;;;;;;4998113;28;21627;-57
2022/02/27 13:28:58;;;;;;;1.40;0.50;;;;;;;;;;4999660;28;20056;-58
2022/02/27 13:31:25;;;;;;;2.35;0.68;;;;;;;;;;4997351;28;20135;-59
2022/02/27 13:33:52;;;;;;;2.00;0.57;;;;;;;;;;4999261;28;20117;-58
2022/02/27 13:36:18;;;;;;;2.03;0.63;;;;;;;;;;4999141;28;20748;-56
2022/02/27 13:38:50;;;;;;;2.22;0.60;;;;;;;;;;5000215;28;20053;-58
2022/02/27 13:41:29;;;;;;;7.85;0.60;;;;;;;;;;5004629;28;20427;-57
2022/02/27 13:43:55;;;;;;;2.08;0.60;;;;;;;;;;5000362;28;20677;-58
2022/02/27 13:46:21;;;;;;;2.40;0.73;;;;;;;;;;5001095;28;20049;-58
2022/02/27 13:48:47;;;;;;;2.75;0.80;;;;;;;;;;4999856;28;20406;-59
2022/02/27 13:51:26;;;;;;;3.03;0.70;;;;;;;;;;4998217;28;20398;-57
2022/02/27 13:53:51;;;;;;;2.35;0.80;;;;;;;;;;4996182;28;20048;-59
2022/02/27 13:56:17;;;;;;;1.85;0.70;;;;;;;;;;4996986;28;20065;-58
2022/02/27 13:58:46;;;;;;;1.42;0.60;;;;;;;;;;4997461;28;20043;-57
2022/02/27 14:01:16;;;;;;;1.95;0.60;;;;;;;;;;5000497;28;20061;-57
2022/02/27 14:03:43;;;;;;;1.15;0.50;;;;;;;;;;4997551;28;20081;-57
2022/02/27 14:06:12;;;;;;;2.05;0.60;;;;;;;;;;5014200;28;20041;-56
2022/02/27 14:08:39;;;;;;;7.55;0.70;;;;;;;;;;4996566;28;20038;-56
2022/02/27 14:11:08;;;;;;;2.53;0.60;;;;;;;;;;4996170;28;20038;-58
2022/02/27 14:13:35;;;;;;;1.88;0.63;;;;;;;;;;4995100;28;20061;-58
2022/02/27 14:16:01;;;;;;;1.63;0.47;;;;;;;;;;4997101;28;20045;-58
2022/02/27 14:18:32;;;;;;;2.00;0.60;;;;;;;;;;4995929;28;20053;-59
2022/02/27 14:21:16;;;;;;;1.55;0.50;;;;;;;;;;4999635;28;20046;-57
2022/02/27 14:23:50;;;;;;;1.80;0.60;;;;;;;;;;4998284;28;20041;-60
2022/02/27 14:26:16;;;;;;;1.10;0.40;;;;;;;;;;4999029;28;20373;-59
2022/02/27 14:28:49;;;;;;;2.95;0.70;;;;;;;;;;4997499;28;20042;-59
2022/02/27 14:31:15;;;;;;;2.00;0.50;;;;;;;;;;4997036;28;20543;-59
2022/02/27 14:33:41;;;;;;;1.73;0.57;;;;;;;;;;5019354;28;20062;-57
2022/02/27 14:36:07;;;;;;;1.02;0.40;;;;;;;;;;4996902;28;20103;-56
2022/02/27 14:38:34;;;;;;;1.73;0.70;;;;;;;;;;4996631;28;20515;-57
2022/02/27 14:41:00;;;;;;;2.20;0.52;;;;;;;;;;4998006;28;20048;-56
2022/02/27 14:43:26;;;;;;;0.98;0.40;;;;;;;;;;4997988;28;20036;-56
2022/02/27 14:45:52;;;;;;;1.95;0.60;;;;;;;;;;5000018;28;20035;-56
2022/02/27 14:48:17;;;;;;;1.80;0.50;;;;;;;;;;5001309;28;20109;-57
2022/02/27 14:50:45;;;;;;;1.25;0.50;;;;;;;;;;5000286;28;20048;-56
2022/02/27 14:53:13;;;;;;;2.05;0.60;;;;;;;;;;4997650;28;20084;-57
2022/02/27 14:55:39;;;;;;;2.13;0.52;;;;;;;;;;4997387;28;20042;-56
2022/02/27 14:58:05;;;;;;;2.45;0.60;;;;;;;;;;4995638;28;20050;-57
2022/02/27 15:00:31;;;;;;;2.13;0.68;;;;;;;;;;5008950;28;20460;-58
2022/02/27 15:02:57;;;;;;;1.52;0.50;;;;;;;;;;4999741;28;20423;-57
2022/02/27 15:05:23;;;;;;;1.90;0.50;;;;;;;;;;5001226;28;20502;-58
2022/02/27 15:07:49;;;;;;;1.88;0.60;;;;;;;;;;5000471;28;20096;-57
2022/02/27 15:10:15;;;;;;;1.33;0.50;;;;;;;;;;5000399;28;20520;-55
2022/02/27 15:12:41;;;;;;;2.15;0.65;;;;;;;;;;5000883;28;20529;-57
2022/02/27 15:15:08;;;;;;;1.60;0.50;;;;;;;;;;5008655;28;20044;-55
2022/02/27 15:17:34;;;;;;;1.83;0.60;;;;;;;;;;5006475;28;21025;-54
2022/02/27 15:20:01;;;;;;;2.40;0.60;;;;;;;;;;5005819;28;20657;-57
2022/02/27 15:22:27;;;;;;;2.05;0.63;;;;;;;;;;4998498;28;20092;-57
2022/02/27 15:24:53;;;;;;;1.40;0.47;;;;;;;;;;4997592;28;20041;-57
2022/02/27 15:27:19;;;;;;;2.40;0.60;;;;;;;;;;5011848;28;20034;-59
2022/02/27 15:29:45;;;;;;;1.17;0.50;;;;;;;;;;4995709;28;20044;-57
2022/02/27 15:32:10;;;;;;;1.75;0.50;;;;;;;;;;4997465;28;20049;-57
2022/02/27 15:34:37;;;;;;;2.28;0.60;;;;;;;;;;4994325;28;20042;-58